createdAt,value
2022-12-15T00:02:26.800Z,27.33
2022-12-15T00:05:12.817Z,29.00
2022-12-15T00:07:58.709Z,26.52
2022-12-15T00:10:44.361Z,26.58
2022-12-15T00:13:32.016Z,30.85
2022-12-15T00:16:19.077Z,28.92
2022-12-15T00:19:04.800Z,30.02
2022-12-15T00:21:53.284Z,30.17
2022-12-15T00:24:39.433Z,39.90
2022-12-15T00:27:25.731Z,33.35
2022-12-15T00:30:11.334Z,29.05
2022-12-15T00:32:56.944Z,32.70
2022-12-15T00:35:43.446Z,37.78
2022-12-15T00:38:32.681Z,27.88
2022-12-15T00:43:29.832Z,29.85
2022-12-15T00:46:15.841Z,29.63
2022-12-15T00:48:43.729Z,36.10
2022-12-15T00:51:11.770Z,29.20
2022-12-15T00:53:57.260Z,29.73
2022-12-15T00:56:43.845Z,31.17
2022-12-15T00:59:30.484Z,28.15
2022-12-15T01:02:16.605Z,27.65
2022-12-15T01:05:02.284Z,29.35
2022-12-15T01:07:49.583Z,27.95
2022-12-15T01:10:37.237Z,31.08
2022-12-15T01:13:23.413Z,31.23
2022-12-15T01:16:08.964Z,35.10
2022-12-15T01:18:54.866Z,30.48
2022-12-15T01:21:25.034Z,32.35
2022-12-15T01:23:53.374Z,33.13
2022-12-15T01:26:20.579Z,32.65
2022-12-15T01:28:47.585Z,32.10
2022-12-15T01:31:14.894Z,32.05
2022-12-15T01:33:43.680Z,31.60
2022-12-15T01:36:11.770Z,33.22
2022-12-15T01:38:39.099Z,31.70
2022-12-15T01:41:10.104Z,30.50
2022-12-15T01:43:39.426Z,28.98
2022-12-15T01:46:11.150Z,31.05
2022-12-15T01:48:54.720Z,33.78
2022-12-15T01:51:30.739Z,30.35
2022-12-15T01:54:01.603Z,31.65
2022-12-15T01:56:37.364Z,31.45
2022-12-15T01:59:09.245Z,29.02
2022-12-15T02:01:36.692Z,28.85
2022-12-15T02:04:04.344Z,28.40
2022-12-15T02:06:31.319Z,27.13
2022-12-15T02:09:00.755Z,24.88
2022-12-15T02:11:36.810Z,21.85
2022-12-15T02:14:06.724Z,21.48
2022-12-15T02:16:39.737Z,18.70
2022-12-15T02:19:42.042Z,20.52
2022-12-15T02:22:32.218Z,20.60
2022-12-15T02:25:40.633Z,20.55
2022-12-15T02:28:25.563Z,29.13
2022-12-15T02:31:22.769Z,20.25
2022-12-15T02:33:55.048Z,18.67
2022-12-15T02:36:38.918Z,23.10
2022-12-15T02:39:06.333Z,25.75
2022-12-15T02:41:39.070Z,28.00
2022-12-15T02:44:22.682Z,20.70
2022-12-15T02:47:01.726Z,23.17
2022-12-15T02:50:23.920Z,27.65
2022-12-15T02:53:08.289Z,21.25
2022-12-15T02:55:41.292Z,20.95
2022-12-15T02:58:39.610Z,23.10
2022-12-15T03:01:26.374Z,23.33
2022-12-15T03:03:55.946Z,21.00
2022-12-15T03:06:25.217Z,22.35
2022-12-15T03:08:52.393Z,18.15
2022-12-15T03:11:19.247Z,21.63
2022-12-15T03:13:46.824Z,19.45
2022-12-15T03:16:17.225Z,17.73
2022-12-15T03:18:44.197Z,15.68
2022-12-15T03:21:11.261Z,20.75
2022-12-15T03:23:38.627Z,16.83
2022-12-15T03:26:06.761Z,16.73
2022-12-15T03:28:34.084Z,25.17
2022-12-15T03:31:01.073Z,18.25
2022-12-15T03:33:28.459Z,19.42
2022-12-15T03:35:56.335Z,18.17
2022-12-15T03:38:23.375Z,17.50
2022-12-15T03:40:50.416Z,19.60
2022-12-15T03:43:17.417Z,19.85
2022-12-15T03:45:44.846Z,18.60
2022-12-15T03:48:12.112Z,19.83
2022-12-15T03:50:39.079Z,18.15
2022-12-15T03:53:06.301Z,18.05
2022-12-15T03:55:35.235Z,18.55
2022-12-15T03:58:02.874Z,20.42
2022-12-15T04:00:30.244Z,18.08
2022-12-15T04:02:57.535Z,17.50
2022-12-15T04:05:33.199Z,19.55
2022-12-15T04:08:01.945Z,19.23
2022-12-15T04:10:34.383Z,20.70
2022-12-15T04:13:11.297Z,21.65
2022-12-15T04:15:40.132Z,23.45
2022-12-15T04:18:14.056Z,19.92
2022-12-15T04:20:41.421Z,18.92
2022-12-15T04:23:08.757Z,19.42
2022-12-15T04:25:55.522Z,21.38
2022-12-15T04:28:43.771Z,19.00
2022-12-15T04:31:33.878Z,20.45
2022-12-15T04:34:22.704Z,25.35
2022-12-15T04:37:11.378Z,19.88
2022-12-15T04:40:04.841Z,18.02
2022-12-15T04:42:52.261Z,19.65
2022-12-15T04:45:40.107Z,21.30
2022-12-15T04:48:25.763Z,20.10
2022-12-15T04:51:11.427Z,20.15
2022-12-15T04:53:56.935Z,18.33
2022-12-15T04:56:42.369Z,19.83
2022-12-15T04:59:27.906Z,22.15
2022-12-15T05:02:13.785Z,24.92
2022-12-15T05:04:59.519Z,18.10
2022-12-15T05:07:45.814Z,16.98
2022-12-15T05:10:31.592Z,15.35
2022-12-15T05:13:28.491Z,16.13
2022-12-15T05:16:15.397Z,13.90
2022-12-15T05:19:01.140Z,15.88
2022-12-15T05:21:47.026Z,16.35
2022-12-15T05:24:34.859Z,16.40
2022-12-15T05:27:20.410Z,17.40
2022-12-15T05:30:06.001Z,18.73
2022-12-15T05:32:33.462Z,16.27
2022-12-15T05:35:01.518Z,17.17
2022-12-15T05:37:30.348Z,16.33
2022-12-15T05:39:57.403Z,18.17
2022-12-15T05:42:24.356Z,18.92
2022-12-15T05:44:51.422Z,18.40
2022-12-15T05:47:18.652Z,16.42
2022-12-15T05:49:45.599Z,18.77
2022-12-15T05:52:12.789Z,18.75
2022-12-15T05:54:39.783Z,21.63
2022-12-15T05:57:06.929Z,21.95
2022-12-15T05:59:34.068Z,23.63
2022-12-15T06:02:01.192Z,28.02
2022-12-15T06:04:28.653Z,30.27
2022-12-15T06:07:14.627Z,27.15
2022-12-15T06:09:41.616Z,32.17
2022-12-15T06:12:08.501Z,29.08
2022-12-15T06:14:36.741Z,33.53
2022-12-15T06:17:04.490Z,28.47
2022-12-15T06:19:31.860Z,26.17
2022-12-15T06:21:58.910Z,25.08
2022-12-15T06:24:26.153Z,27.60
2022-12-15T06:26:53.366Z,24.63
2022-12-15T06:29:20.420Z,25.45
2022-12-15T06:31:48.016Z,23.83
2022-12-15T06:34:17.023Z,23.73
2022-12-15T06:36:44.565Z,26.23
2022-12-15T06:39:13.978Z,24.70
2022-12-15T06:41:42.219Z,25.02
2022-12-15T06:44:13.439Z,25.95
2022-12-15T06:46:40.428Z,25.98
2022-12-15T06:49:09.083Z,25.08
2022-12-15T06:51:36.675Z,25.75
2022-12-15T06:54:03.723Z,24.35
2022-12-15T06:56:34.580Z,24.02
2022-12-15T06:59:03.960Z,24.27
2022-12-15T07:01:31.870Z,20.92
2022-12-15T07:04:03.232Z,22.05
2022-12-15T07:06:37.613Z,21.05
2022-12-15T07:09:08.565Z,22.85
2022-12-15T07:11:36.184Z,22.95
2022-12-15T07:14:03.409Z,24.05
2022-12-15T07:16:31.096Z,18.98
2022-12-15T07:18:58.896Z,19.00
2022-12-15T07:21:26.329Z,20.50
2022-12-15T07:23:55.921Z,22.17
2022-12-15T07:26:24.682Z,22.50
2022-12-15T07:28:54.222Z,21.80
2022-12-15T07:31:23.131Z,25.15
2022-12-15T07:33:52.908Z,24.77
2022-12-15T07:36:20.509Z,24.75
2022-12-15T07:38:50.323Z,22.40
2022-12-15T07:41:19.532Z,23.40
2022-12-15T07:43:48.043Z,22.05
2022-12-15T07:46:15.891Z,21.50
2022-12-15T07:48:43.095Z,20.80
2022-12-15T07:51:18.793Z,22.42
2022-12-15T07:53:49.646Z,21.63
2022-12-15T07:56:19.185Z,20.17
2022-12-15T07:58:46.658Z,20.95
2022-12-15T08:01:15.565Z,18.70
2022-12-15T08:03:42.928Z,21.30
2022-12-15T08:06:13.329Z,17.40
2022-12-15T08:08:41.039Z,21.45
2022-12-15T08:11:10.644Z,19.92
2022-12-15T08:14:01.872Z,20.00
2022-12-15T08:16:26.160Z,20.23
2022-12-15T08:18:53.941Z,19.85
2022-12-15T08:21:21.202Z,21.60
2022-12-15T08:23:51.170Z,20.45
2022-12-15T08:26:19.559Z,24.33
2022-12-15T08:28:47.237Z,20.52
2022-12-15T08:31:17.582Z,20.45
2022-12-15T08:33:45.621Z,21.63
2022-12-15T08:36:14.466Z,20.92
2022-12-15T08:38:43.181Z,20.50
2022-12-15T08:41:11.745Z,22.38
2022-12-15T08:43:45.800Z,21.75
2022-12-15T08:46:16.056Z,24.65
2022-12-15T08:48:43.337Z,24.00
2022-12-15T08:51:10.724Z,22.08
2022-12-15T08:53:38.913Z,26.48
2022-12-15T08:56:09.020Z,44.10
2022-12-15T08:58:36.417Z,39.60
2022-12-15T09:01:09.131Z,36.50
2022-12-15T09:03:37.136Z,24.88
2022-12-15T09:06:11.789Z,31.58
2022-12-15T09:08:39.061Z,27.25
2022-12-15T09:11:06.405Z,20.73
2022-12-15T09:13:33.974Z,22.73
2022-12-15T09:16:13.354Z,22.25
2022-12-15T09:18:46.145Z,22.25
2022-12-15T09:21:15.011Z,22.50
2022-12-15T09:23:43.281Z,23.40
2022-12-15T09:28:43.311Z,26.98
2022-12-15T09:31:15.431Z,25.50
2022-12-15T09:33:43.908Z,31.02
2022-12-15T09:36:13.320Z,38.17
2022-12-15T09:41:13.684Z,28.60
2022-12-15T09:44:05.425Z,27.60
2022-12-15T09:47:11.523Z,30.27
2022-12-15T09:49:51.378Z,41.65
2022-12-15T09:52:23.764Z,47.83
2022-12-15T09:54:51.551Z,35.67
2022-12-15T09:57:26.251Z,40.78
2022-12-15T10:00:21.004Z,47.40
2022-12-15T10:02:54.176Z,51.40
2022-12-15T10:06:07.046Z,51.72
2022-12-15T10:08:31.088Z,52.17
2022-12-15T10:11:16.215Z,58.33
2022-12-15T10:14:27.331Z,56.30
2022-12-15T10:17:25.373Z,53.92
2022-12-15T10:20:02.504Z,51.28
2022-12-15T10:22:39.140Z,54.33
2022-12-15T10:25:27.459Z,49.72
2022-12-15T10:28:24.963Z,44.03
2022-12-15T10:31:05.383Z,45.80
2022-12-15T10:33:39.700Z,40.47
2022-12-15T10:36:15.445Z,40.20
2022-12-15T10:38:50.537Z,40.25
2022-12-15T10:41:22.360Z,41.80
2022-12-15T10:43:54.664Z,39.13
2022-12-15T10:46:28.015Z,38.25
2022-12-15T10:49:07.512Z,38.05
2022-12-15T10:51:44.240Z,39.35
2022-12-15T10:54:14.146Z,39.53
2022-12-15T10:56:59.101Z,40.55
2022-12-15T10:59:31.999Z,36.45
2022-12-15T11:02:23.016Z,34.22
2022-12-15T11:04:58.354Z,36.05
2022-12-15T11:07:53.581Z,36.03
2022-12-15T11:10:50.046Z,37.25
2022-12-15T11:13:22.646Z,36.97
2022-12-15T11:15:55.088Z,37.33
2022-12-15T11:18:46.322Z,38.22
2022-12-15T11:21:30.765Z,37.83
2022-12-15T11:24:38.928Z,36.83
2022-12-15T11:27:14.327Z,34.88
2022-12-15T11:30:02.936Z,34.85
2022-12-15T11:32:35.345Z,35.15
2022-12-15T11:35:02.915Z,32.90
2022-12-15T11:37:44.423Z,33.88
2022-12-15T11:40:21.533Z,34.08
2022-12-15T11:42:54.852Z,37.80
2022-12-15T11:45:35.548Z,32.17
2022-12-15T11:48:13.833Z,38.22
2022-12-15T11:51:05.880Z,36.97
2022-12-15T11:54:17.247Z,36.20
2022-12-15T11:57:02.358Z,31.50
2022-12-15T11:59:56.968Z,37.45
2022-12-15T12:02:48.652Z,37.38
2022-12-15T12:05:40.429Z,33.45
2022-12-15T12:08:26.032Z,34.83
2022-12-15T12:10:59.055Z,43.17
2022-12-15T12:13:40.654Z,35.17
2022-12-15T12:16:32.773Z,34.72
2022-12-15T12:19:10.073Z,35.28
2022-12-15T12:21:41.084Z,34.75
2022-12-15T12:24:25.066Z,35.25
2022-12-15T12:27:34.025Z,36.53
2022-12-15T12:30:06.923Z,37.10
2022-12-15T12:32:43.788Z,36.95
2022-12-15T12:35:33.504Z,37.33
2022-12-15T12:38:03.857Z,38.63
2022-12-15T12:40:40.907Z,40.13
2022-12-15T12:43:14.089Z,37.97
2022-12-15T12:45:54.316Z,36.72
2022-12-15T12:49:00.356Z,38.55
2022-12-15T12:51:36.866Z,36.95
2022-12-15T12:54:33.930Z,35.83
2022-12-15T12:57:02.512Z,35.00
2022-12-15T12:59:29.372Z,35.53
2022-12-15T13:01:58.554Z,42.67
2022-12-15T13:04:28.672Z,37.80
2022-12-15T13:06:55.439Z,37.83
2022-12-15T13:09:25.314Z,38.83
2022-12-15T13:11:52.316Z,37.88
2022-12-15T13:14:46.672Z,41.42
2022-12-15T13:20:02.776Z,35.38
2022-12-15T13:22:36.535Z,37.60
2022-12-15T13:25:41.927Z,36.80
2022-12-15T13:28:28.263Z,40.38
2022-12-15T13:31:27.717Z,40.38
2022-12-15T13:36:39.952Z,35.80
2022-12-15T13:39:13.246Z,36.85
2022-12-15T13:42:07.472Z,39.67
2022-12-15T13:44:38.161Z,38.97
2022-12-15T13:47:16.607Z,45.42
2022-12-15T13:50:01.377Z,47.88
2022-12-15T13:55:51.563Z,44.65
2022-12-15T13:58:21.382Z,42.90
2022-12-15T14:00:52.029Z,46.70
2022-12-15T14:03:19.047Z,47.50
2022-12-15T14:05:52.369Z,48.38
2022-12-15T14:08:22.072Z,49.50
2022-12-15T14:11:50.907Z,44.50
2022-12-15T14:14:23.512Z,45.00
2022-12-15T14:16:58.844Z,48.53
2022-12-15T14:19:27.502Z,45.38
2022-12-15T14:21:59.482Z,39.67
2022-12-15T14:27:29.588Z,41.67
2022-12-15T14:30:12.786Z,44.80
2022-12-15T14:32:42.743Z,44.83
2022-12-15T14:35:26.238Z,44.38
2022-12-15T14:37:55.928Z,41.50
2022-12-15T14:42:56.962Z,38.83
2022-12-15T14:45:27.513Z,44.83
2022-12-15T14:48:30.408Z,40.85
2022-12-15T14:50:47.889Z,45.33
2022-12-15T14:53:17.933Z,44.63
2022-12-15T14:55:45.591Z,44.28
2022-12-15T14:58:29.732Z,45.97
2022-12-15T15:00:57.549Z,48.70
2022-12-15T15:03:10.518Z,46.90
2022-12-15T15:03:35.362Z,49.03
2022-12-15T15:06:12.130Z,48.17
2022-12-15T15:08:50.908Z,53.25
2022-12-15T15:11:21.222Z,59.70
2022-12-15T15:13:48.475Z,59.70
2022-12-15T15:16:17.482Z,56.25
2022-12-15T15:18:49.361Z,64.40
2022-12-15T15:21:26.462Z,67.00
2022-12-15T15:24:00.011Z,63.97
2022-12-15T15:26:28.546Z,61.55
2022-12-15T15:28:55.951Z,62.78
2022-12-15T15:31:23.045Z,71.20
2022-12-15T15:33:50.833Z,71.05
2022-12-15T15:36:17.919Z,79.93
2022-12-15T15:38:46.882Z,81.50
2022-12-15T15:41:18.112Z,79.68
2022-12-15T15:43:46.112Z,75.45
2022-12-15T15:46:22.227Z,85.43
2022-12-15T15:48:50.638Z,90.38
2022-12-15T15:51:18.624Z,82.78
2022-12-15T15:53:46.872Z,78.95
2022-12-15T15:56:16.693Z,80.88
2022-12-15T15:58:44.484Z,77.38
2022-12-15T16:01:13.637Z,76.35
2022-12-15T16:06:17.382Z,71.47
2022-12-15T16:08:45.583Z,73.57
2022-12-15T16:11:12.874Z,72.63
2022-12-15T16:13:40.083Z,67.40
2022-12-15T16:16:15.230Z,65.03
2022-12-15T16:18:42.848Z,67.88
2022-12-15T16:21:14.159Z,65.13
2022-12-15T16:23:44.128Z,61.78
2022-12-15T16:26:17.049Z,60.97
2022-12-15T16:28:44.358Z,65.72
2022-12-15T16:31:24.715Z,59.25
2022-12-15T16:33:52.142Z,62.00
2022-12-15T16:36:19.244Z,57.75
2022-12-15T16:38:46.316Z,58.63
2022-12-15T16:41:17.235Z,60.25
2022-12-15T16:43:48.251Z,65.53
2022-12-15T16:46:16.157Z,66.82
2022-12-15T16:48:45.649Z,60.25
2022-12-15T16:54:27.035Z,59.25
2022-12-15T16:56:56.996Z,62.03
2022-12-15T16:59:36.274Z,61.40
2022-12-15T17:04:47.460Z,87.35
2022-12-15T17:07:20.012Z,71.65
2022-12-15T17:09:50.074Z,62.65
2022-12-15T17:14:46.044Z,55.60
2022-12-15T17:17:18.723Z,59.20
2022-12-15T17:20:19.947Z,56.72
2022-12-15T17:22:36.267Z,57.08
2022-12-15T17:25:03.316Z,58.63
2022-12-15T17:27:31.666Z,64.00
2022-12-15T17:30:00.870Z,66.53
2022-12-15T17:34:55.105Z,61.28
2022-12-15T17:37:26.186Z,65.20
2022-12-15T17:39:56.558Z,65.30
2022-12-15T17:42:23.609Z,61.83
2022-12-15T17:44:51.869Z,64.82
2022-12-15T17:47:19.167Z,62.17
2022-12-15T17:49:47.382Z,63.67
2022-12-15T17:52:35.053Z,66.15
2022-12-15T17:55:04.413Z,69.78
2022-12-15T17:57:32.271Z,68.72
2022-12-15T18:00:02.815Z,70.07
2022-12-15T18:02:33.100Z,61.28
2022-12-15T18:05:00.252Z,71.57
2022-12-15T18:07:28.118Z,73.68
2022-12-15T18:09:55.537Z,70.75
2022-12-15T18:12:27.953Z,65.45
2022-12-15T18:14:56.980Z,70.00
2022-12-15T18:17:24.501Z,72.32
2022-12-15T18:19:51.743Z,63.95
2022-12-15T18:22:24.101Z,66.28
2022-12-15T18:24:53.495Z,67.38
2022-12-15T18:27:29.614Z,70.97
2022-12-15T18:29:57.191Z,71.45
2022-12-15T18:32:26.688Z,70.50
2022-12-15T18:34:54.864Z,75.75
2022-12-15T18:37:24.862Z,66.65
2022-12-15T18:39:52.708Z,87.70
2022-12-15T18:42:21.597Z,79.32
2022-12-15T18:44:53.601Z,77.85
2022-12-15T18:47:23.506Z,83.47
2022-12-15T18:49:51.786Z,79.20
2022-12-15T18:52:24.494Z,78.38
2022-12-15T18:54:54.213Z,88.28
2022-12-15T18:57:30.847Z,83.07
2022-12-15T19:00:17.416Z,84.43
2022-12-15T19:02:44.507Z,91.00
2022-12-15T19:05:27.711Z,91.75
2022-12-15T19:08:00.814Z,91.35
2022-12-15T19:10:30.351Z,89.63
2022-12-15T19:15:26.149Z,93.85
2022-12-15T19:18:11.816Z,97.95
2022-12-15T19:20:59.459Z,91.75
2022-12-15T19:23:26.546Z,101.00
2022-12-15T19:25:54.587Z,99.90
2022-12-15T19:28:23.439Z,96.30
2022-12-15T19:30:52.225Z,99.38
2022-12-15T19:33:20.084Z,100.85
2022-12-15T19:35:51.145Z,108.10
2022-12-15T19:38:25.654Z,115.88
2022-12-15T19:40:54.640Z,151.82
2022-12-15T19:43:24.205Z,122.57
2022-12-15T19:45:52.239Z,122.22
2022-12-15T19:48:23.340Z,116.40
2022-12-15T19:50:52.185Z,119.85
2022-12-15T19:53:25.921Z,108.93
2022-12-15T19:55:55.591Z,114.35
2022-12-15T19:58:33.071Z,118.13
2022-12-15T20:01:06.966Z,119.25
2022-12-15T20:03:34.962Z,113.53
2022-12-15T20:06:03.879Z,111.32
2022-12-15T20:08:36.923Z,117.18
2022-12-15T20:11:05.177Z,117.32
2022-12-15T20:13:32.656Z,115.75
2022-12-15T20:15:59.849Z,111.53
2022-12-15T20:18:27.071Z,112.47
2022-12-15T20:20:54.312Z,118.90
2022-12-15T20:23:29.534Z,121.60
2022-12-15T20:25:57.329Z,116.90
2022-12-15T20:28:29.927Z,114.60
2022-12-15T20:30:57.428Z,123.32
2022-12-15T20:33:24.917Z,121.70
2022-12-15T20:35:52.787Z,118.15
2022-12-15T20:38:25.383Z,120.72
2022-12-15T20:40:53.090Z,119.47
2022-12-15T20:43:22.350Z,116.60
2022-12-15T20:48:25.692Z,125.15
2022-12-15T20:50:53.439Z,128.55
2022-12-15T20:53:24.263Z,125.55
2022-12-15T20:55:53.296Z,132.45
2022-12-15T20:58:21.302Z,133.85
2022-12-15T21:00:51.755Z,136.45
2022-12-15T21:03:30.314Z,134.60
2022-12-15T21:05:58.859Z,130.23
2022-12-15T21:08:29.692Z,137.98
2022-12-15T21:11:02.767Z,121.53
2022-12-15T21:13:33.047Z,129.23
2022-12-15T21:16:00.736Z,129.85
2022-12-15T21:21:20.942Z,120.70
2022-12-15T21:23:49.009Z,120.53
2022-12-15T21:26:22.084Z,123.35
2022-12-15T21:28:50.342Z,122.30
2022-12-15T21:31:19.101Z,125.38
2022-12-15T21:33:46.716Z,139.32
2022-12-15T21:36:15.726Z,132.07
2022-12-15T21:38:46.643Z,129.80
2022-12-15T21:41:16.791Z,119.15
2022-12-15T21:43:43.888Z,117.93
2022-12-15T21:46:31.137Z,117.35
2022-12-15T21:49:18.648Z,113.55
2022-12-15T21:51:57.599Z,112.38
2022-12-15T21:54:30.928Z,108.30
2022-12-15T21:56:59.742Z,113.70
2022-12-15T21:59:29.608Z,109.63
2022-12-15T22:01:59.274Z,106.00
2022-12-15T22:04:34.959Z,103.72
2022-12-15T22:07:02.584Z,102.50
2022-12-15T22:09:29.529Z,98.35
2022-12-15T22:11:57.083Z,115.57
2022-12-15T22:14:28.195Z,110.20
2022-12-15T22:16:55.771Z,107.07
2022-12-15T22:19:23.614Z,105.03
2022-12-15T22:21:51.135Z,110.88
2022-12-15T22:24:20.927Z,110.15
2022-12-15T22:26:48.047Z,103.60
2022-12-15T22:29:18.855Z,163.40
2022-12-15T22:31:46.949Z,110.90
2022-12-15T22:34:19.621Z,108.40
2022-12-15T22:36:46.786Z,103.85
2022-12-15T22:39:15.024Z,95.68
2022-12-15T22:41:47.846Z,106.27
2022-12-15T22:44:27.704Z,98.72
2022-12-15T22:46:56.986Z,97.65
2022-12-15T22:49:30.557Z,95.25
2022-12-15T22:51:58.172Z,93.32
2022-12-15T22:54:27.654Z,99.88
2022-12-15T22:59:36.196Z,101.25
2022-12-15T23:02:03.715Z,105.53
2022-12-15T23:04:32.264Z,101.43
2022-12-15T23:07:05.103Z,107.40
2022-12-15T23:09:32.169Z,103.20
2022-12-15T23:12:01.924Z,101.90
2022-12-15T23:14:47.766Z,106.70
2022-12-15T23:17:14.978Z,118.18
2022-12-15T23:19:46.130Z,109.30
2022-12-15T23:22:13.946Z,118.53
2022-12-15T23:24:41.096Z,117.72
2022-12-15T23:27:11.930Z,120.15
2022-12-15T23:29:47.979Z,127.95
2022-12-15T23:32:15.273Z,128.45
2022-12-15T23:34:42.478Z,120.22
2022-12-15T23:37:09.888Z,127.35
2022-12-15T23:39:37.055Z,117.88
2022-12-15T23:42:05.674Z,117.97
2022-12-15T23:44:32.621Z,129.65
2022-12-15T23:46:59.942Z,128.02
2022-12-15T23:49:27.014Z,127.10
2022-12-15T23:51:54.068Z,125.90
2022-12-15T23:54:22.376Z,164.27
2022-12-15T23:56:49.429Z,169.77
